Time;durP1;ratioP1;P1;durP2;ratioP2;P2;SDS_P1;SDS_P2;PMS_P1;PMS_P2;Temp;Humidity;BMP_temperature;BMP_pressure;BME280_temperature;BME280_humidity;BME280_pressure;Samples;Min_cycle;Max_cycle;Signal;HPM_P1;HPM_P2
2021/07/07 00:00:58;;;;;;;3.77;1.80;;;22.30;1.00;;;;;;5051742;27;20821;-52
2021/07/07 00:03:25;;;;;;;4.30;2.40;;;21.70;1.00;;;;;;5033850;28;20808;-52
2021/07/07 00:05:51;;;;;;;3.23;1.80;;;21.50;1.00;;;;;;5027930;28;20467;-53
2021/07/07 00:08:17;;;;;;;3.17;2.00;;;21.50;1.00;;;;;;5031268;28;20440;-54
2021/07/07 00:10:42;;;;;;;3.20;1.77;;;21.40;1.00;;;;;;5040685;28;20935;-52
2021/07/07 00:13:08;;;;;;;2.70;1.90;;;21.40;1.00;;;;;;5038287;28;20191;-53
2021/07/07 00:15:34;;;;;;;2.60;1.93;;;21.50;1.00;;;;;;5039387;28;20647;-54
2021/07/07 00:18:09;;;;;;;2.27;2.00;;;21.30;1.00;;;;;;5035154;28;20196;-53
2021/07/07 00:20:45;;;;;;;2.10;1.90;;;21.30;1.00;;;;;;5029593;28;20459;-54
2021/07/07 00:23:12;;;;;;;4.97;2.30;;;21.20;1.00;;;;;;5036952;28;20953;-53
2021/07/07 00:25:38;;;;;;;4.03;2.13;;;21.30;1.00;;;;;;5036928;28;20857;-53
2021/07/07 00:28:04;;;;;;;3.67;2.70;;;21.20;1.00;;;;;;5038011;28;20442;-53
2021/07/07 00:30:30;;;;;;;3.50;2.20;;;21.20;1.00;;;;;;5032754;28;20935;-52
2021/07/07 00:32:56;;;;;;;3.37;2.40;;;21.20;3.10;;;;;;5043907;28;20442;-53
2021/07/07 00:35:22;;;;;;;4.70;3.00;;;21.20;1.00;;;;;;5035834;28;20175;-52
2021/07/07 00:37:48;;;;;;;3.03;2.73;;;21.10;4.40;;;;;;5033306;28;20201;-53
2021/07/07 00:40:14;;;;;;;5.30;2.90;;;21.00;44.20;;;;;;5032781;28;20499;-53
2021/07/07 00:42:40;;;;;;;5.00;2.50;;;21.10;65.60;;;;;;5036906;28;20254;-54
2021/07/07 00:45:07;;;;;;;3.10;2.50;;;21.10;52.30;;;;;;5076233;28;20449;-53
2021/07/07 00:47:32;;;;;;;2.90;2.70;;;21.10;46.70;;;;;;5028439;28;20439;-53
2021/07/07 00:49:58;;;;;;;5.40;2.67;;;21.00;57.80;;;;;;5038879;28;20447;-54
2021/07/07 00:52:24;;;;;;;5.60;2.90;;;20.90;69.00;;;;;;5075169;28;20224;-53
2021/07/07 00:54:50;;;;;;;5.23;3.00;;;21.00;76.00;;;;;;5035502;28;20191;-54
2021/07/07 00:57:17;;;;;;;3.30;2.53;;;21.10;66.00;;;;;;5033624;28;20735;-51
2021/07/07 00:59:45;;;;;;;3.87;2.93;;;21.00;72.10;;;;;;5030838;28;20528;-52
2021/07/07 01:02:14;;;;;;;4.77;2.97;;;21.00;72.40;;;;;;5037510;28;20479;-51
2021/07/07 01:04:39;;;;;;;3.63;2.63;;;20.90;59.10;;;;;;5021781;28;20518;-54
2021/07/07 01:07:05;;;;;;;2.00;1.90;;;21.00;42.70;;;;;;5035787;28;20947;-54
2021/07/07 01:09:30;;;;;;;2.60;1.20;;;20.80;1.00;;;;;;5033600;28;20635;-53
2021/07/07 01:11:56;;;;;;;1.70;1.20;;;20.40;1.00;;;;;;5031993;28;20180;-54
2021/07/07 01:14:21;;;;;;;1.63;1.00;;;20.10;1.00;;;;;;5038090;28;20215;-53
2021/07/07 01:16:49;;;;;;;2.30;1.53;;;20.00;1.00;;;;;;5030268;28;20657;-52
2021/07/07 01:19:15;;;;;;;1.50;1.40;;;20.00;1.00;;;;;;5044671;28;20212;-53
2021/07/07 01:21:47;;;;;;;1.60;1.47;;;20.00;1.00;;;;;;5030865;28;20444;-55
2021/07/07 01:24:18;;;;;;;3.63;1.60;;;19.70;1.00;;;;;;5034858;28;20718;-53
2021/07/07 01:26:44;;;;;;;3.63;1.20;;;19.70;1.00;;;;;;5038710;28;20475;-53
2021/07/07 01:29:12;;;;;;;1.90;1.40;;;19.80;1.00;;;;;;5041450;28;20435;-53
2021/07/07 01:31:38;;;;;;;1.33;1.10;;;19.80;1.00;;;;;;5031292;28;20944;-52
2021/07/07 01:34:05;;;;;;;1.40;1.30;;;20.00;1.00;;;;;;5029241;28;20439;-53
2021/07/07 01:36:34;;;;;;;2.00;1.43;;;19.90;1.00;;;;;;5032853;28;20532;-53
2021/07/07 01:39:00;;;;;;;1.23;1.10;;;19.90;1.00;;;;;;5026634;28;20968;-54
2021/07/07 01:41:26;;;;;;;1.57;1.10;;;19.90;1.00;;;;;;5032817;28;20508;-52
2021/07/07 01:43:54;;;;;;;1.30;1.20;;;19.90;1.00;;;;;;5039581;28;20841;-54
2021/07/07 01:46:20;;;;;;;1.53;1.40;;;19.80;1.00;;;;;;5033691;28;20204;-52
2021/07/07 01:48:46;;;;;;;1.47;1.23;;;19.80;1.00;;;;;;5041129;28;20526;-54
2021/07/07 01:51:11;;;;;;;1.83;1.57;;;19.70;1.00;;;;;;5034502;28;20220;-54
2021/07/07 01:53:37;;;;;;;2.17;1.30;;;19.70;1.00;;;;;;5065574;28;20218;-54
2021/07/07 01:56:03;;;;;;;2.80;1.00;;;19.50;1.00;;;;;;5034063;28;20289;-54
2021/07/07 01:58:29;;;;;;;1.67;1.43;;;19.30;1.00;;;;;;5028248;28;20208;-54
2021/07/07 02:00:54;;;;;;;2.57;1.50;;;19.40;1.00;;;;;;5035199;28;20452;-53
2021/07/07 02:03:20;;;;;;;2.07;1.30;;;19.40;1.00;;;;;;5029154;28;20637;-54
2021/07/07 02:05:46;;;;;;;1.53;1.27;;;19.60;1.00;;;;;;5025801;28;20227;-52
2021/07/07 02:08:12;;;;;;;1.50;1.40;;;19.70;1.00;;;;;;5037043;28;20188;-54
2021/07/07 02:10:38;;;;;;;1.63;1.30;;;19.40;1.00;;;;;;5031247;28;20188;-54
2021/07/07 02:13:06;;;;;;;2.33;1.30;;;19.40;1.00;;;;;;5030046;28;20843;-52
2021/07/07 02:15:34;;;;;;;2.30;1.60;;;19.20;1.00;;;;;;5033420;28;20929;-53
2021/07/07 02:18:01;;;;;;;2.70;1.63;;;19.00;1.00;;;;;;5042397;28;20943;-52
2021/07/07 02:20:32;;;;;;;1.53;1.43;;;19.10;1.00;;;;;;5047414;28;20446;-53
2021/07/07 02:22:57;;;;;;;1.30;1.20;;;19.40;1.00;;;;;;5022953;28;20436;-54
2021/07/07 02:25:26;;;;;;;2.30;1.50;;;19.50;1.00;;;;;;5043348;28;20983;-52
2021/07/07 02:27:53;;;;;;;2.60;1.53;;;19.50;1.00;;;;;;5031893;28;20664;-53
2021/07/07 02:30:21;;;;;;;1.80;1.17;;;19.60;1.00;;;;;;5036492;28;20443;-53
2021/07/07 02:32:47;;;;;;;2.00;1.60;;;19.70;1.00;;;;;;5041153;28;20573;-54
2021/07/07 02:35:18;;;;;;;1.83;1.60;;;19.70;1.00;;;;;;5046146;28;20930;-52
2021/07/07 02:37:44;;;;;;;2.97;1.37;;;19.80;1.00;;;;;;5050817;28;20434;-54
2021/07/07 02:40:11;;;;;;;1.90;1.40;;;19.80;1.00;;;;;;5036242;28;20493;-52
2021/07/07 02:42:37;;;;;;;2.20;1.50;;;19.90;1.00;;;;;;5053182;28;20543;-53
2021/07/07 02:45:06;;;;;;;2.63;1.30;;;19.90;1.00;;;;;;5033459;28;20594;-52
2021/07/07 02:47:31;;;;;;;1.67;1.30;;;19.90;1.00;;;;;;5035247;28;20179;-54
2021/07/07 02:49:57;;;;;;;1.63;1.33;;;19.90;1.00;;;;;;5043410;28;20944;-53
2021/07/07 02:52:23;;;;;;;1.67;1.50;;;19.90;1.00;;;;;;5032767;28;20728;-53
2021/07/07 02:54:48;;;;;;;1.70;1.57;;;20.00;1.00;;;;;;5045775;28;20234;-53
2021/07/07 02:57:16;;;;;;;2.43;1.53;;;19.90;1.00;;;;;;5032490;28;20447;-53
2021/07/07 02:59:41;;;;;;;2.03;1.33;;;19.80;1.00;;;;;;5039128;28;20339;-52
2021/07/07 03:02:08;;;;;;;1.63;1.53;;;19.90;1.00;;;;;;5035500;28;20444;-53
2021/07/07 03:04:34;;;;;;;2.10;1.90;;;20.00;1.00;;;;;;5049581;28;20603;-53
2021/07/07 03:07:00;;;;;;;5.50;2.80;;;20.00;1.00;;;;;;5037841;28;20522;-54
2021/07/07 03:09:25;;;;;;;9.17;5.07;;;20.00;1.00;;;;;;5034576;28;20544;-52
2021/07/07 03:11:51;;;;;;;8.17;4.60;;;19.70;1.00;;;;;;5038522;28;20184;-54
2021/07/07 03:14:16;;;;;;;2.77;1.60;;;19.60;1.00;;;;;;5039245;28;20239;-53
2021/07/07 03:16:42;;;;;;;2.13;1.60;;;19.60;1.00;;;;;;5030730;28;20185;-52
2021/07/07 03:19:07;;;;;;;3.03;2.20;;;19.70;1.00;;;;;;5045291;28;20683;-53
2021/07/07 03:21:33;;;;;;;3.83;1.47;;;19.80;1.00;;;;;;5027507;28;20180;-52
2021/07/07 03:23:58;;;;;;;2.10;1.90;;;20.00;1.00;;;;;;5028550;28;20197;-53
2021/07/07 03:26:24;;;;;;;2.10;1.70;;;20.10;1.00;;;;;;5030703;28;20210;-54
2021/07/07 03:28:50;;;;;;;1.97;1.83;;;20.00;1.00;;;;;;5034939;28;20655;-52
2021/07/07 03:31:15;;;;;;;2.67;1.80;;;20.00;1.00;;;;;;5037322;28;20187;-52
2021/07/07 03:33:41;;;;;;;2.00;1.80;;;19.90;1.00;;;;;;5035547;28;20204;-53
2021/07/07 03:36:07;;;;;;;2.60;2.40;;;19.90;1.00;;;;;;5033890;28;20196;-53
2021/07/07 03:38:32;;;;;;;7.10;4.67;;;19.70;1.00;;;;;;5023085;28;20234;-54
2021/07/07 03:40:58;;;;;;;6.30;3.93;;;19.70;1.00;;;;;;5032445;28;20517;-52
2021/07/07 03:43:23;;;;;;;10.53;4.57;;;19.60;1.00;;;;;;5036149;28;20220;-53
2021/07/07 03:45:49;;;;;;;3.37;3.00;;;19.60;1.00;;;;;;5028888;28;20664;-53
2021/07/07 03:48:15;;;;;;;5.50;4.20;;;19.70;1.00;;;;;;5020377;28;20200;-53
2021/07/07 03:50:40;;;;;;;2.97;2.17;;;19.80;1.00;;;;;;5029344;28;20207;-54
2021/07/07 03:53:07;;;;;;;2.97;2.13;;;19.80;1.00;;;;;;5042628;28;20368;-52
2021/07/07 03:55:34;;;;;;;5.50;2.70;;;19.80;1.00;;;;;;5039004;28;20195;-54
2021/07/07 03:58:01;;;;;;;2.27;1.70;;;19.70;1.00;;;;;;5043076;28;20465;-53
2021/07/07 04:00:27;;;;;;;1.93;1.40;;;19.80;1.00;;;;;;5044938;28;21010;-54
2021/07/07 04:02:55;;;;;;;1.90;1.40;;;19.70;1.00;;;;;;5040192;28;20453;-52
2021/07/07 04:05:20;;;;;;;1.87;1.77;;;19.60;1.00;;;;;;5032713;28;20419;-53
2021/07/07 04:07:46;;;;;;;6.50;3.53;;;19.50;1.00;;;;;;5082048;28;20512;-54
2021/07/07 04:10:13;;;;;;;6.87;3.50;;;19.40;1.00;;;;;;5036803;28;20568;-55
2021/07/07 04:12:41;;;;;;;6.40;3.70;;;19.30;1.00;;;;;;5050363;28;20218;-57
2021/07/07 04:15:08;;;;;;;5.00;2.20;;;19.20;1.00;;;;;;5037251;28;20423;-56
2021/07/07 04:17:34;;;;;;;2.70;1.50;;;19.20;1.00;;;;;;5046808;28;20486;-56
2021/07/07 04:20:00;;;;;;;2.93;1.40;;;19.30;1.00;;;;;;5047667;28;21060;-55
2021/07/07 04:22:26;;;;;;;1.30;1.20;;;19.10;1.00;;;;;;5041539;28;20445;-56
2021/07/07 04:24:52;;;;;;;4.53;1.80;;;19.10;1.00;;;;;;5043891;28;20443;-56
2021/07/07 04:27:17;;;;;;;1.60;1.50;;;19.00;1.00;;;;;;5044254;28;20192;-56
2021/07/07 04:29:43;;;;;;;1.53;1.43;;;18.90;1.00;;;;;;5035015;28;20191;-56
2021/07/07 04:32:09;;;;;;;4.30;1.73;;;18.90;1.00;;;;;;5046529;28;20188;-55
2021/07/07 04:34:34;;;;;;;1.43;1.30;;;19.00;1.00;;;;;;5031162;28;20250;-57
2021/07/07 04:37:01;;;;;;;2.37;1.70;;;19.00;1.00;;;;;;5029093;28;20213;-56
2021/07/07 04:39:27;;;;;;;2.70;1.87;;;19.00;1.00;;;;;;5036248;28;20204;-57
2021/07/07 04:41:52;;;;;;;2.13;1.80;;;18.90;1.00;;;;;;5048549;28;20505;-56
2021/07/07 04:44:18;;;;;;;10.67;2.67;;;19.00;1.00;;;;;;5028484;28;20419;-56
2021/07/07 04:46:43;;;;;;;2.73;2.03;;;19.00;1.00;;;;;;5034695;28;20273;-54
2021/07/07 04:49:09;;;;;;;4.20;2.23;;;18.90;1.00;;;;;;5039835;28;20191;-53
2021/07/07 04:51:35;;;;;;;10.23;2.10;;;18.80;1.00;;;;;;5068288;28;20184;-53
2021/07/07 04:54:00;;;;;;;2.83;2.03;;;18.70;1.00;;;;;;5036539;28;20223;-53
2021/07/07 04:56:26;;;;;;;3.50;2.10;;;18.70;1.00;;;;;;5039774;28;20196;-54
2021/07/07 04:58:52;;;;;;;2.30;2.10;;;18.60;1.00;;;;;;5034940;28;20295;-53
2021/07/07 05:01:17;;;;;;;2.60;1.80;;;18.80;1.00;;;;;;5031913;28;20183;-53
2021/07/07 05:03:43;;;;;;;8.30;5.30;;;18.70;1.00;;;;;;5031010;28;20196;-52
2021/07/07 05:06:09;;;;;;;3.50;2.50;;;18.60;1.00;;;;;;5039637;28;20668;-53
2021/07/07 05:08:34;;;;;;;3.27;2.00;;;18.70;1.00;;;;;;5041118;28;20271;-55
2021/07/07 05:11:00;;;;;;;2.50;1.60;;;18.70;1.00;;;;;;5039120;28;20233;-54
2021/07/07 05:13:26;;;;;;;3.00;1.67;;;18.60;1.00;;;;;;5033846;28;20226;-53
2021/07/07 05:15:52;;;;;;;3.90;2.10;;;18.60;1.00;;;;;;5044816;28;20442;-53
2021/07/07 05:18:19;;;;;;;3.40;2.90;;;18.70;1.00;;;;;;5028474;28;20200;-53
2021/07/07 05:20:45;;;;;;;2.73;2.10;;;18.80;1.00;;;;;;5033872;28;20775;-58
2021/07/07 05:23:10;;;;;;;2.93;1.60;;;18.90;1.00;;;;;;5035985;28;20509;-57
2021/07/07 05:25:38;;;;;;;2.13;1.40;;;18.90;1.00;;;;;;5039370;28;20200;-53
2021/07/07 05:28:04;;;;;;;4.13;1.83;;;18.90;1.00;;;;;;5036021;28;20658;-54
2021/07/07 05:30:30;;;;;;;4.27;1.80;;;18.90;1.00;;;;;;5037051;28;20477;-54
2021/07/07 05:32:57;;;;;;;3.60;2.00;;;19.00;1.00;;;;;;5043012;28;20417;-58
2021/07/07 05:35:23;;;;;;;3.40;1.80;;;19.00;1.00;;;;;;5028070;28;20944;-54
2021/07/07 05:37:49;;;;;;;2.83;1.70;;;19.00;1.00;;;;;;5032179;28;20430;-54
2021/07/07 05:40:16;;;;;;;1.80;1.70;;;19.00;1.00;;;;;;5031588;28;20185;-54
2021/07/07 05:42:43;;;;;;;1.70;1.60;;;19.00;1.00;;;;;;5036195;28;20638;-53
2021/07/07 05:45:09;;;;;;;1.80;1.67;;;18.80;1.00;;;;;;5038549;28;20440;-56
2021/07/07 05:47:35;;;;;;;2.27;1.70;;;18.70;1.00;;;;;;5030848;28;20533;-55
2021/07/07 05:50:00;;;;;;;2.93;1.87;;;18.80;1.00;;;;;;5040211;28;20192;-54
2021/07/07 05:52:27;;;;;;;3.53;1.50;;;18.80;1.00;;;;;;5026971;28;20225;-54
2021/07/07 05:54:58;;;;;;;1.70;1.50;;;18.90;1.00;;;;;;5043382;28;20636;-53
2021/07/07 05:57:25;;;;;;;1.73;1.40;;;18.90;1.00;;;;;;5046429;28;20444;-54
2021/07/07 05:59:52;;;;;;;1.80;1.50;;;19.00;1.00;;;;;;5040723;28;20473;-55
2021/07/07 06:02:17;;;;;;;3.13;1.53;;;19.00;1.00;;;;;;5034423;28;20410;-53
2021/07/07 06:04:43;;;;;;;2.47;1.70;;;18.80;1.00;;;;;;5034047;28;20442;-56
2021/07/07 06:07:08;;;;;;;2.30;1.50;;;18.80;1.00;;;;;;5031048;28;20553;-54
2021/07/07 06:09:34;;;;;;;1.83;1.70;;;18.90;1.00;;;;;;5039044;28;20672;-55
2021/07/07 06:12:00;;;;;;;5.77;4.80;;;19.00;1.00;;;;;;5043263;28;20239;-54
2021/07/07 06:14:25;;;;;;;2.60;1.73;;;19.10;1.00;;;;;;5043698;28;20193;-54
2021/07/07 06:16:51;;;;;;;2.17;1.80;;;19.00;1.00;;;;;;5034344;27;20542;-54
2021/07/07 06:19:17;;;;;;;1.80;1.60;;;19.00;1.00;;;;;;5076759;28;20231;-56
2021/07/07 06:21:43;;;;;;;2.27;2.10;;;19.10;1.00;;;;;;5024727;28;20272;-54
2021/07/07 06:24:09;;;;;;;2.13;1.87;;;19.10;1.00;;;;;;5030598;27;20531;-54
2021/07/07 06:26:34;;;;;;;4.00;2.00;;;19.00;1.00;;;;;;5024458;28;20552;-54
2021/07/07 06:29:04;;;;;;;2.73;1.60;;;19.10;1.00;;;;;;5039164;28;20433;-54
2021/07/07 06:31:32;;;;;;;2.50;2.03;;;19.20;1.00;;;;;;5040262;28;20271;-54
2021/07/07 06:33:58;;;;;;;1.83;1.70;;;19.20;1.00;;;;;;5038007;28;20861;-54
2021/07/07 06:36:23;;;;;;;3.87;2.30;;;19.30;1.00;;;;;;5034539;28;20440;-54
2021/07/07 06:38:49;;;;;;;4.60;2.30;;;19.30;1.00;;;;;;5034368;28;20216;-54
2021/07/07 06:41:14;;;;;;;2.40;1.70;;;19.40;1.00;;;;;;5036655;28;20191;-55
2021/07/07 06:43:41;;;;;;;2.30;1.70;;;19.40;1.00;;;;;;5043537;27;20279;-53
2021/07/07 06:46:07;;;;;;;2.10;1.87;;;19.40;1.00;;;;;;5044667;28;20183;-55
2021/07/07 06:48:32;;;;;;;2.30;1.23;;;19.40;1.00;;;;;;5034293;28;20418;-54
2021/07/07 06:50:58;;;;;;;2.00;1.40;;;19.60;1.00;;;;;;5035961;28;20184;-55
2021/07/07 06:53:25;;;;;;;2.57;1.43;;;19.40;1.00;;;;;;5048463;28;20253;-54
2021/07/07 06:55:51;;;;;;;1.73;1.60;;;19.40;1.00;;;;;;5037132;28;20185;-56
2021/07/07 06:58:16;;;;;;;1.50;1.40;;;19.50;1.00;;;;;;5031350;28;20472;-54
2021/07/07 07:00:42;;;;;;;1.87;1.77;;;19.50;1.00;;;;;;5035257;28;20184;-54
2021/07/07 07:03:07;;;;;;;1.30;1.20;;;19.50;1.00;;;;;;5030826;28;20181;-57
2021/07/07 07:05:34;;;;;;;3.33;1.43;;;19.50;1.00;;;;;;5030926;28;20637;-54
2021/07/07 07:08:03;;;;;;;1.93;1.50;;;19.50;1.00;;;;;;5038631;28;20207;-53
2021/07/07 07:10:28;;;;;;;1.70;1.60;;;19.60;1.00;;;;;;5038750;28;20474;-53
2021/07/07 07:12:54;;;;;;;3.00;2.70;;;19.70;1.00;;;;;;5027216;28;20453;-54
2021/07/07 07:15:19;;;;;;;2.57;2.37;;;19.70;1.00;;;;;;5019165;28;20181;-53
2021/07/07 07:17:45;;;;;;;2.43;2.23;;;19.70;1.00;;;;;;5056448;28;20217;-55
2021/07/07 07:20:14;;;;;;;1.87;1.77;;;19.70;1.00;;;;;;5094540;27;20205;-54
2021/07/07 07:22:40;;;;;;;4.23;2.27;;;19.80;1.00;;;;;;5027632;28;20465;-55
2021/07/07 07:25:07;;;;;;;1.90;1.70;;;19.80;1.00;;;;;;5037908;28;20463;-55
2021/07/07 07:27:33;;;;;;;2.73;1.70;;;19.80;1.00;;;;;;5033952;28;20451;-53
2021/07/07 07:29:58;;;;;;;1.50;1.40;;;19.00;1.00;;;;;;5027883;28;20504;-56
2021/07/07 07:32:24;;;;;;;1.77;1.50;;;19.90;1.00;;;;;;5038292;28;20278;-54
2021/07/07 07:34:50;;;;;;;2.30;1.63;;;19.90;1.00;;;;;;5038424;28;20214;-53
2021/07/07 07:37:23;;;;;;;1.50;1.40;;;19.90;1.00;;;;;;5046266;28;20680;-55
2021/07/07 07:39:52;;;;;;;1.90;1.57;;;20.00;1.00;;;;;;5027380;28;20199;-53
2021/07/07 07:42:19;;;;;;;1.97;1.20;;;20.00;1.00;;;;;;5034598;28;20941;-54
2021/07/07 07:44:46;;;;;;;1.73;1.37;;;20.00;1.00;;;;;;5041810;28;20929;-55
2021/07/07 07:47:13;;;;;;;1.30;1.20;;;20.00;1.00;;;;;;5043412;28;20450;-54
2021/07/07 07:49:39;;;;;;;1.43;1.07;;;20.00;1.00;;;;;;5045426;28;20409;-52
2021/07/07 07:52:05;;;;;;;2.50;1.40;;;20.00;1.00;;;;;;5037194;28;20469;-54
2021/07/07 07:54:32;;;;;;;1.80;1.70;;;19.90;1.00;;;;;;5033801;28;20189;-53
2021/07/07 07:56:59;;;;;;;1.60;1.17;;;20.00;1.00;;;;;;5037524;28;20439;-55
2021/07/07 07:59:24;;;;;;;3.93;1.50;;;20.20;1.00;;;;;;5033953;28;20496;-54
2021/07/07 08:01:50;;;;;;;2.03;1.53;;;20.20;1.00;;;;;;5037504;28;20437;-54
2021/07/07 08:04:17;;;;;;;2.60;1.97;;;20.00;1.00;;;;;;5041282;28;20193;-53
2021/07/07 08:06:43;;;;;;;1.83;1.30;;;20.20;1.00;;;;;;5041398;28;20613;-54
2021/07/07 08:09:08;;;;;;;1.50;1.40;;;20.50;1.00;;;;;;5043216;28;20466;-54
2021/07/07 08:11:34;;;;;;;1.67;1.40;;;20.70;1.00;;;;;;5069538;28;20245;-54
2021/07/07 08:13:59;;;;;;;3.50;2.03;;;20.80;1.00;;;;;;5041028;28;20192;-54
2021/07/07 08:16:25;;;;;;;1.27;1.17;;;20.90;1.00;;;;;;5036818;28;20192;-55
2021/07/07 08:18:51;;;;;;;2.33;1.50;;;21.10;1.00;;;;;;5053422;28;20296;-55
2021/07/07 08:21:18;;;;;;;1.23;1.13;;;21.10;1.00;;;;;;5025003;28;20169;-54
2021/07/07 08:23:43;;;;;;;1.33;1.23;;;21.30;1.00;;;;;;5034472;28;20211;-54
2021/07/07 08:26:09;;;;;;;1.50;1.40;;;21.40;1.00;;;;;;5041020;28;20477;-53
2021/07/07 08:28:35;;;;;;;1.40;1.30;;;21.40;1.00;;;;;;5033323;28;20180;-54
2021/07/07 08:31:00;;;;;;;1.80;1.70;;;21.40;1.00;;;;;;5037048;28;20190;-54
2021/07/07 08:33:26;;;;;;;1.60;1.40;;;21.30;1.00;;;;;;5035721;28;20244;-54
2021/07/07 08:35:51;;;;;;;2.57;2.10;;;21.20;1.00;;;;;;5048459;28;20653;-56
2021/07/07 08:38:17;;;;;;;1.97;1.60;;;21.10;1.00;;;;;;5032089;28;20614;-54
2021/07/07 08:40:43;;;;;;;2.07;1.47;;;21.00;1.00;;;;;;5043243;28;20201;-53
2021/07/07 08:43:09;;;;;;;2.23;1.40;;;21.00;1.00;;;;;;5047074;28;20180;-53
2021/07/07 08:45:35;;;;;;;1.90;1.67;;;21.10;1.00;;;;;;5031532;28;20185;-54
2021/07/07 08:48:01;;;;;;;1.30;1.20;;;21.10;1.00;;;;;;5029120;28;20896;-54
2021/07/07 08:50:30;;;;;;;2.53;1.50;;;21.00;1.00;;;;;;5036559;28;20224;-53
2021/07/07 08:52:59;;;;;;;1.50;1.40;;;21.00;1.00;;;;;;5037909;28;20534;-54
2021/07/07 08:55:25;;;;;;;3.43;1.10;;;21.00;1.00;;;;;;5038612;28;20496;-53
2021/07/07 08:57:51;;;;;;;1.70;1.27;;;21.00;1.00;;;;;;5037556;28;20522;-55
2021/07/07 09:00:27;;;;;;;4.77;2.03;;;21.10;1.00;;;;;;5032853;28;20541;-55
2021/07/07 09:02:56;;;;;;;3.03;1.63;;;21.10;1.00;;;;;;5040669;28;20435;-54
2021/07/07 09:05:22;;;;;;;3.30;1.57;;;21.00;1.00;;;;;;5040772;28;20428;-54
2021/07/07 09:07:48;;;;;;;1.83;1.20;;;21.00;1.00;;;;;;5041423;28;20430;-54
2021/07/07 09:10:25;;;;;;;2.20;1.53;;;21.00;1.00;;;;;;5068917;28;20446;-58
2021/07/07 09:12:50;;;;;;;1.47;1.37;;;21.00;1.00;;;;;;5037878;28;20191;-56
2021/07/07 09:15:17;;;;;;;1.83;1.40;;;21.00;1.00;;;;;;5031907;28;20416;-54
2021/07/07 09:17:48;;;;;;;3.90;1.47;;;20.90;1.00;;;;;;5031367;28;20579;-54
2021/07/07 09:20:26;;;;;;;2.20;1.07;;;20.90;1.00;;;;;;5032803;28;20455;-56
2021/07/07 09:23:22;;;;;;;1.60;1.50;;;20.80;1.00;;;;;;5038610;28;20446;-56
2021/07/07 09:25:52;;;;;;;1.87;1.47;;;20.80;1.00;;;;;;5041111;28;20433;-55
2021/07/07 09:28:31;;;;;;;1.57;1.20;;;20.90;1.00;;;;;;5038207;28;20405;-54
2021/07/07 09:31:04;;;;;;;1.67;1.17;;;20.90;1.00;;;;;;5035468;28;20417;-55
2021/07/07 09:33:42;;;;;;;2.37;1.60;;;21.00;1.00;;;;;;5040330;28;20792;-54
2021/07/07 09:36:18;;;;;;;2.57;1.80;;;21.00;1.00;;;;;;5040357;28;20442;-54
2021/07/07 09:38:45;;;;;;;2.00;1.80;;;21.10;1.00;;;;;;5044196;28;20973;-55
2021/07/07 09:41:12;;;;;;;1.80;1.60;;;21.10;1.00;;;;;;5039586;28;20583;-54
2021/07/07 09:43:54;;;;;;;2.03;1.83;;;21.30;1.00;;;;;;5039187;28;20451;-56
2021/07/07 09:46:22;;;;;;;1.80;1.70;;;21.50;1.00;;;;;;5045098;28;20408;-55
2021/07/07 09:48:49;;;;;;;2.10;1.90;;;21.70;1.00;;;;;;5040423;28;20937;-55
2021/07/07 09:51:16;;;;;;;2.33;2.13;;;21.70;1.00;;;;;;5043421;28;20470;-56
2021/07/07 09:53:42;;;;;;;2.40;1.80;;;21.60;1.00;;;;;;5034255;28;20971;-53
2021/07/07 09:56:07;;;;;;;3.53;1.77;;;21.70;1.00;;;;;;5036107;28;20495;-54
2021/07/07 09:58:33;;;;;;;1.70;1.60;;;21.90;1.00;;;;;;5041117;28;20212;-56
2021/07/07 10:00:59;;;;;;;2.63;2.00;;;22.00;1.00;;;;;;5043757;28;20203;-54
2021/07/07 10:03:24;;;;;;;2.63;1.77;;;21.90;1.00;;;;;;5042863;28;20700;-54
2021/07/07 10:05:51;;;;;;;1.87;1.77;;;21.90;1.00;;;;;;5043181;28;20413;-55
2021/07/07 10:08:18;;;;;;;2.10;1.90;;;22.00;1.00;;;;;;5044866;28;20188;-55
2021/07/07 10:10:45;;;;;;;3.60;3.30;;;21.70;1.00;;;;;;5034644;28;20412;-54
2021/07/07 10:13:11;;;;;;;3.00;2.80;;;21.70;1.00;;;;;;5063390;28;20524;-54
2021/07/07 10:15:37;;;;;;;2.07;1.70;;;21.60;1.00;;;;;;5047980;28;20784;-54
2021/07/07 10:18:06;;;;;;;2.53;1.60;;;21.70;1.00;;;;;;5039518;28;20406;-55
2021/07/07 10:20:32;;;;;;;2.00;1.90;;;21.60;1.00;;;;;;5046345;28;20434;-53
2021/07/07 10:23:00;;;;;;;1.70;1.53;;;21.60;1.00;;;;;;5066948;28;20435;-53
2021/07/07 10:25:28;;;;;;;2.37;1.80;;;21.60;1.00;;;;;;5041921;28;20208;-56
2021/07/07 10:27:56;;;;;;;2.00;1.87;;;21.60;1.00;;;;;;5086204;28;20948;-55
2021/07/07 10:30:49;;;;;;;2.40;2.20;;;21.40;1.00;;;;;;5035638;28;20498;-55
2021/07/07 10:33:16;;;;;;;3.50;2.70;;;21.10;1.00;;;;;;5033433;28;20413;-53
2021/07/07 10:35:41;;;;;;;1.73;1.63;;;21.20;1.00;;;;;;5039956;28;20971;-54
2021/07/07 10:38:07;;;;;;;2.93;1.97;;;21.30;1.00;;;;;;5044416;28;20468;-55
2021/07/07 10:40:37;;;;;;;2.27;1.50;;;21.50;1.00;;;;;;5078043;28;20181;-54
2021/07/07 10:43:02;;;;;;;2.13;1.60;;;21.60;1.00;;;;;;5038494;28;20559;-54
2021/07/07 10:45:46;;;;;;;3.83;1.70;;;21.90;1.00;;;;;;5041391;28;20449;-54
2021/07/07 10:48:32;;;;;;;2.60;1.60;;;22.10;1.00;;;;;;5041697;28;20211;-56
2021/07/07 10:51:00;;;;;;;3.10;2.53;;;22.40;1.00;;;;;;5034546;28;20490;-56
2021/07/07 10:53:33;;;;;;;2.07;1.87;;;22.70;1.00;;;;;;5038119;28;20491;-54
2021/07/07 10:55:59;;;;;;;1.90;1.53;;;22.90;1.00;;;;;;5044953;28;20450;-53
2021/07/07 10:58:33;;;;;;;2.30;1.70;;;23.10;1.00;;;;;;5031075;28;20782;-54
2021/07/07 11:00:59;;;;;;;2.27;1.70;;;23.40;1.00;;;;;;5035357;28;20436;-54
2021/07/07 11:03:31;;;;;;;2.60;2.40;;;23.80;1.00;;;;;;5030014;27;20496;-56
2021/07/07 11:06:18;;;;;;;2.60;2.40;;;23.90;1.00;;;;;;5036558;28;20438;-57
2021/07/07 11:08:43;;;;;;;2.03;1.90;;;24.00;1.00;;;;;;5038116;28;20425;-55
2021/07/07 11:11:22;;;;;;;1.93;1.70;;;23.80;1.00;;;;;;5043627;28;20410;-54
2021/07/07 11:13:49;;;;;;;2.23;1.93;;;23.70;1.00;;;;;;5048853;28;20248;-56
2021/07/07 11:16:20;;;;;;;2.30;2.10;;;23.60;1.00;;;;;;5076478;27;20426;-54
2021/07/07 11:18:47;;;;;;;2.83;2.40;;;23.60;1.00;;;;;;5083025;28;20442;-55
2021/07/07 11:21:13;;;;;;;2.13;1.93;;;23.40;1.00;;;;;;5032314;28;20466;-56
2021/07/07 11:23:39;;;;;;;2.17;1.70;;;23.40;1.00;;;;;;5042457;28;20450;-55
2021/07/07 11:26:09;;;;;;;2.20;2.00;;;23.40;1.00;;;;;;5045006;28;20442;-55
2021/07/07 11:28:35;;;;;;;2.70;1.90;;;23.50;1.00;;;;;;5042944;28;20904;-54
2021/07/07 11:31:01;;;;;;;4.07;2.27;;;23.40;1.00;;;;;;5034874;28;20454;-55
2021/07/07 11:33:27;;;;;;;3.87;2.00;;;23.30;1.00;;;;;;5046385;28;20197;-54
2021/07/07 11:35:54;;;;;;;2.20;2.00;;;23.40;1.00;;;;;;5039728;28;20425;-54
2021/07/07 11:38:25;;;;;;;2.00;1.80;;;23.30;1.00;;;;;;5039995;28;20472;-55
2021/07/07 11:40:53;;;;;;;2.20;2.00;;;23.40;1.00;;;;;;5034876;28;20447;-55
2021/07/07 11:43:20;;;;;;;2.60;2.40;;;23.40;1.00;;;;;;5042136;28;20891;-55
2021/07/07 11:45:49;;;;;;;3.20;2.90;;;23.20;1.00;;;;;;5045243;28;20434;-55
2021/07/07 11:51:01;;;;;;;2.60;2.40;;;22.70;1.00;;;;;;5035174;28;20432;-56
2021/07/07 11:53:39;;;;;;;2.63;2.33;;;23.00;1.00;;;;;;5040353;28;20965;-55
2021/07/07 11:56:07;;;;;;;3.33;1.90;;;23.30;1.00;;;;;;5038001;28;20449;-54
2021/07/07 11:58:42;;;;;;;4.20;2.20;;;23.60;1.00;;;;;;5045337;28;20445;-53
2021/07/07 12:01:13;;;;;;;2.13;1.93;;;24.10;1.00;;;;;;5030388;28;20413;-53
2021/07/07 12:03:39;;;;;;;2.13;1.93;;;24.10;1.00;;;;;;5033447;28;20926;-54
2021/07/07 12:06:11;;;;;;;2.33;1.93;;;24.20;1.00;;;;;;5043722;28;20477;-55
2021/07/07 12:08:41;;;;;;;2.27;1.70;;;24.20;1.00;;;;;;5029983;28;20488;-56
2021/07/07 12:11:18;;;;;;;3.33;2.50;;;24.40;1.00;;;;;;5033430;28;20431;-56
2021/07/07 12:13:45;;;;;;;2.40;1.80;;;24.90;1.00;;;;;;5034068;28;20451;-56
2021/07/07 12:16:22;;;;;;;2.10;1.40;;;25.30;1.00;;;;;;5038024;28;20443;-56
2021/07/07 12:18:53;;;;;;;1.63;1.53;;;25.30;1.00;;;;;;5036538;28;20479;-54
2021/07/07 12:21:24;;;;;;;1.57;1.47;;;24.90;1.00;;;;;;5040058;28;20405;-56
2021/07/07 12:24:01;;;;;;;1.90;1.70;;;25.10;1.00;;;;;;5040346;28;20426;-55
2021/07/07 12:26:35;;;;;;;3.70;1.80;;;25.30;1.00;;;;;;5057313;28;20498;-56
2021/07/07 12:29:01;;;;;;;1.60;1.50;;;25.90;1.00;;;;;;5037754;28;20437;-56
2021/07/07 12:31:32;;;;;;;2.07;1.70;;;26.00;1.00;;;;;;5043729;28;20430;-56
2021/07/07 12:33:58;;;;;;;2.40;2.20;;;26.20;1.00;;;;;;5042188;28;20966;-56
2021/07/07 12:36:30;;;;;;;1.83;1.73;;;26.50;1.00;;;;;;5039273;28;20796;-56
2021/07/07 12:38:58;;;;;;;2.77;2.30;;;26.60;1.00;;;;;;5039777;28;20481;-55
2021/07/07 12:41:36;;;;;;;2.83;2.10;;;26.50;1.00;;;;;;5030532;28;20439;-57
2021/07/07 12:44:13;;;;;;;2.07;1.90;;;27.10;1.00;;;;;;5035625;28;20973;-56
2021/07/07 12:46:58;;;;;;;2.27;1.87;;;27.20;1.00;;;;;;5043291;28;20430;-54
2021/07/07 12:49:44;;;;;;;4.73;2.33;;;26.80;1.00;;;;;;5036288;28;20422;-56
2021/07/07 12:52:22;;;;;;;1.50;1.40;;;26.50;1.00;;;;;;5037573;28;20931;-56
2021/07/07 12:55:13;;;;;;;2.37;1.80;;;26.80;1.00;;;;;;5035620;28;20409;-54
2021/07/07 12:57:46;;;;;;;2.47;1.80;;;26.90;1.00;;;;;;5043307;28;20401;-55
2021/07/07 13:00:20;;;;;;;1.50;1.40;;;27.10;1.00;;;;;;5035260;28;20437;-55
2021/07/07 13:02:54;;;;;;;1.90;1.80;;;27.40;1.00;;;;;;5039349;28;20408;-55